Time;durP1;ratioP1;P1;durP2;ratioP2;P2;SDS_P1;SDS_P2;PMS_P1;PMS_P2;Temp;Humidity;BMP_temperature;BMP_pressure;BME280_temperature;BME280_humidity;BME280_pressure;Samples;Min_cycle;Max_cycle;Signal;HPM_P1;HPM_P2
2023/08/10 00:02:55;;;;;;;9.10;3.58;;;22.30;79.90;;;;;;5092930;28;20047;-67
2023/08/10 00:05:59;;;;;;;11.45;4.50;;;22.40;78.50;;;;;;5092990;28;20411;-67
2023/08/10 00:09:04;;;;;;;13.35;4.85;;;22.40;78.90;;;;;;5092697;28;20059;-67
2023/08/10 00:12:08;;;;;;;12.55;4.65;;;22.30;78.30;;;;;;5092953;28;20043;-67
2023/08/10 00:15:12;;;;;;;11.02;3.90;;;22.30;78.20;;;;;;5092954;28;20122;-67
2023/08/10 00:18:16;;;;;;;10.68;3.88;;;22.60;78.70;;;;;;5092800;28;20622;-67
2023/08/10 00:21:20;;;;;;;6.35;3.15;;;22.20;77.90;;;;;;5092528;28;20039;-67
2023/08/10 00:24:24;;;;;;;10.23;3.58;;;22.10;78.40;;;;;;5092448;28;20043;-67
2023/08/10 00:27:27;;;;;;;10.48;3.53;;;22.30;78.00;;;;;;5091861;28;20526;-67
2023/08/10 00:30:32;;;;;;;7.05;3.00;;;22.10;78.00;;;;;;5091262;28;20051;-67
2023/08/10 00:33:37;;;;;;;12.55;3.70;;;22.20;77.60;;;;;;5092324;28;20043;-67
2023/08/10 00:36:41;;;;;;;5.13;2.70;;;22.20;78.00;;;;;;5092346;28;20046;-67
2023/08/10 00:39:46;;;;;;;5.45;2.47;;;;;;;;;;5092149;28;20043;-67
2023/08/10 00:42:50;;;;;;;8.02;2.50;;;22.10;76.00;;;;;;5092113;28;20036;-67
2023/08/10 00:45:54;;;;;;;7.03;2.40;;;22.20;75.20;;;;;;5091570;28;20611;-67
2023/08/10 00:48:58;;;;;;;8.77;2.20;;;22.20;75.70;;;;;;5092216;28;20522;-67
2023/08/10 00:52:03;;;;;;;4.50;2.40;;;22.10;75.00;;;;;;5091384;28;20059;-67
2023/08/10 00:55:08;;;;;;;6.38;2.45;;;22.20;75.60;;;;;;5091931;28;20087;-67
2023/08/10 00:58:12;;;;;;;4.47;2.30;;;22.20;75.70;;;;;;5091164;28;20392;-67
2023/08/10 01:01:16;;;;;;;9.13;2.60;;;22.10;76.50;;;;;;5091759;28;20063;-67
2023/08/10 01:04:20;;;;;;;15.57;3.95;;;22.10;77.00;;;;;;5091928;28;20047;-67
2023/08/10 01:07:48;;;;;;;7.60;2.60;;;21.90;77.80;;;;;;5091535;28;20046;-67
2023/08/10 01:11:21;;;;;;;7.30;2.20;;;21.70;76.00;;;;;;5091254;28;20431;-67
2023/08/10 01:14:48;;;;;;;9.80;2.95;;;21.60;75.30;;;;;;5096862;28;20060;-67
2023/08/10 01:17:55;;;;;;;9.30;2.63;;;21.60;75.80;;;;;;5090762;28;20059;-67
2023/08/10 01:21:01;;;;;;;4.95;2.17;;;21.40;76.30;;;;;;5090766;28;20043;-67
2023/08/10 01:24:16;;;;;;;6.70;2.53;;;21.40;76.70;;;;;;5090737;28;20202;-67
2023/08/10 01:27:20;;;;;;;5.00;2.10;;;22.00;76.20;;;;;;5091007;28;20059;-67
2023/08/10 01:30:24;;;;;;;7.10;2.60;;;21.60;75.80;;;;;;5091475;28;20047;-67
2023/08/10 01:33:29;;;;;;;5.80;2.55;;;21.60;75.70;;;;;;5091370;28;20384;-67
2023/08/10 01:36:33;;;;;;;6.20;2.78;;;21.70;75.70;;;;;;5091082;28;20047;-67
2023/08/10 01:39:38;;;;;;;4.35;2.28;;;21.60;75.70;;;;;;5091115;28;20035;-67
2023/08/10 01:42:43;;;;;;;5.82;2.05;;;21.60;75.20;;;;;;5090757;28;20434;-67
2023/08/10 01:45:51;;;;;;;6.78;2.40;;;21.60;75.40;;;;;;5091096;28;20043;-67
2023/08/10 01:48:57;;;;;;;5.20;2.20;;;21.50;75.70;;;;;;5091319;28;20047;-67
2023/08/10 01:52:06;;;;;;;7.30;2.70;;;21.40;76.00;;;;;;5091235;28;20510;-67
2023/08/10 01:55:11;;;;;;;8.98;2.67;;;21.30;77.00;;;;;;5091274;28;20522;-67
2023/08/10 01:58:15;;;;;;;6.50;2.53;;;21.30;77.10;;;;;;5090000;28;20530;-67
2023/08/10 02:01:20;;;;;;;4.95;2.22;;;21.20;76.70;;;;;;5091103;28;20062;-67
2023/08/10 02:04:24;;;;;;;6.97;2.40;;;21.30;77.00;;;;;;5090839;28;20186;-67
2023/08/10 02:07:27;;;;;;;8.85;3.30;;;21.30;77.20;;;;;;5090748;28;20538;-67
2023/08/10 02:10:31;;;;;;;8.27;2.45;;;21.10;77.50;;;;;;5090707;28;20055;-67
2023/08/10 02:13:35;;;;;;;6.93;2.22;;;21.10;77.20;;;;;;5090152;28;20059;-67
2023/08/10 02:16:40;;;;;;;6.95;2.50;;;21.20;77.80;;;;;;5089896;28;20055;-67
2023/08/10 02:19:44;;;;;;;11.80;2.40;;;21.10;77.80;;;;;;5090680;28;20399;-67
2023/08/10 02:22:49;;;;;;;6.05;2.50;;;21.10;78.10;;;;;;5091144;28;20043;-67
2023/08/10 02:25:53;;;;;;;11.80;2.90;;;21.10;79.10;;;;;;5094896;28;20400;-67
2023/08/10 02:28:57;;;;;;;11.65;2.50;;;21.10;79.80;;;;;;5093798;28;20044;-67
2023/08/10 02:32:01;;;;;;;9.00;3.05;;;21.00;80.00;;;;;;5094121;28;20047;-67
2023/08/10 02:35:06;;;;;;;5.03;2.58;;;21.00;80.10;;;;;;5094065;28;20387;-67
2023/08/10 02:38:10;;;;;;;5.90;2.75;;;21.00;80.60;;;;;;5094491;28;20518;-67
2023/08/10 02:41:14;;;;;;;7.18;2.65;;;20.90;80.90;;;;;;5094520;28;20050;-67
2023/08/10 02:44:20;;;;;;;8.80;3.25;;;20.80;81.10;;;;;;5093858;28;20067;-67
2023/08/10 02:47:24;;;;;;;5.88;2.67;;;22.20;81.70;;;;;;5094650;28;20062;-67
2023/08/10 02:50:28;;;;;;;9.60;4.50;;;20.80;80.80;;;;;;5093617;28;20051;-67
2023/08/10 02:53:32;;;;;;;12.13;3.47;;;20.80;81.00;;;;;;5094559;28;20043;-67
2023/08/10 02:56:36;;;;;;;8.45;3.40;;;20.90;81.00;;;;;;5094197;28;20055;-67
2023/08/10 02:59:40;;;;;;;8.45;3.08;;;21.00;81.10;;;;;;5093339;28;20498;-67
2023/08/10 03:02:44;;;;;;;7.80;3.00;;;20.90;80.30;;;;;;5094298;28;20055;-67
2023/08/10 03:05:50;;;;;;;8.60;3.35;;;21.00;81.20;;;;;;5093260;28;20043;-67
2023/08/10 03:08:54;;;;;;;15.05;3.28;;;20.80;82.20;;;;;;5094150;28;20396;-67
2023/08/10 03:11:57;;;;;;;11.75;3.40;;;21.60;82.80;;;;;;5093264;28;20407;-67
2023/08/10 03:15:08;;;;;;;7.90;3.10;;;20.80;82.80;;;;;;5093086;28;20503;-67
2023/08/10 03:18:13;;;;;;;6.75;3.35;;;20.80;83.10;;;;;;5093143;28;20046;-67
2023/08/10 03:21:18;;;;;;;6.53;3.08;;;20.80;83.10;;;;;;5093238;28;20066;-67
2023/08/10 03:24:22;;;;;;;10.45;3.28;;;21.60;83.70;;;;;;5093463;28;20043;-67
2023/08/10 03:27:25;;;;;;;8.40;3.42;;;20.70;83.50;;;;;;5092677;28;20415;-67
2023/08/10 03:30:30;;;;;;;10.93;3.50;;;20.70;84.40;;;;;;5092687;28;20078;-67
2023/08/10 03:33:35;;;;;;;14.15;3.42;;;20.50;84.70;;;;;;5092759;28;20047;-67
2023/08/10 03:36:40;;;;;;;7.40;3.25;;;21.00;85.90;;;;;;5092749;28;20039;-67
2023/08/10 03:39:44;;;;;;;12.40;3.00;;;20.40;85.90;;;;;;5092450;28;20035;-67
2023/08/10 03:42:47;;;;;;;15.43;3.38;;;18.90;85.20;;;;;;5092444;28;20051;-67
2023/08/10 03:45:51;;;;;;;9.43;3.60;;;20.30;86.40;;;;;;5092570;28;20387;-67
2023/08/10 03:48:55;;;;;;;9.20;3.08;;;20.30;87.00;;;;;;5092676;28;20307;-67
2023/08/10 03:52:02;;;;;;;8.18;3.05;;;20.50;84.30;;;;;;5092648;28;20510;-67
2023/08/10 03:55:06;;;;;;;9.40;3.33;;;20.60;82.80;;;;;;5092329;28;20495;-67
2023/08/10 03:58:10;;;;;;;7.35;2.90;;;20.60;83.30;;;;;;5092984;28;20063;-67
2023/08/10 04:01:14;;;;;;;6.75;3.10;;;20.60;83.10;;;;;;5092133;28;20043;-67
2023/08/10 04:04:18;;;;;;;8.88;3.03;;;20.60;82.60;;;;;;5092970;28;20054;-67
2023/08/10 04:07:22;;;;;;;9.75;3.22;;;20.60;82.80;;;;;;5092071;28;20039;-67
2023/08/10 04:10:26;;;;;;;9.40;3.22;;;20.50;82.50;;;;;;5092555;28;20055;-67
2023/08/10 04:13:30;;;;;;;7.57;3.05;;;20.50;82.90;;;;;;5092803;28;20043;-67
2023/08/10 04:16:34;;;;;;;10.60;3.72;;;20.40;82.20;;;;;;5091696;28;20066;-67
2023/08/10 04:19:38;;;;;;;11.32;3.28;;;20.30;83.00;;;;;;5091533;28;20047;-67
2023/08/10 04:22:42;;;;;;;9.70;3.03;;;20.40;83.00;;;;;;5092291;28;20034;-67
2023/08/10 04:25:46;;;;;;;8.82;3.45;;;20.40;83.40;;;;;;5092700;28;20510;-67
2023/08/10 04:28:50;;;;;;;8.15;3.28;;;20.30;83.60;;;;;;5092665;28;20043;-67
2023/08/10 04:31:54;;;;;;;13.85;3.40;;;20.30;83.40;;;;;;5092387;28;20055;-67
2023/08/10 04:34:58;;;;;;;14.68;3.70;;;20.40;82.90;;;;;;5092383;28;20598;-67
2023/08/10 04:38:03;;;;;;;15.20;3.15;;;20.50;82.30;;;;;;5092282;28;20054;-67
2023/08/10 04:41:07;;;;;;;11.40;3.38;;;21.50;82.40;;;;;;5092189;28;20059;-67
2023/08/10 04:44:11;;;;;;;13.35;4.03;;;20.60;80.80;;;;;;5092362;28;20039;-67
2023/08/10 04:47:15;;;;;;;11.73;3.60;;;20.70;80.30;;;;;;5091722;28;20043;-67
2023/08/10 04:50:19;;;;;;;18.13;4.32;;;20.70;80.60;;;;;;5092136;28;20055;-67
2023/08/10 04:53:23;;;;;;;22.17;3.25;;;21.00;78.80;;;;;;5092103;28;20039;-67
2023/08/10 04:56:27;;;;;;;8.13;3.00;;;22.20;74.20;;;;;;5091995;28;20451;-67
2023/08/10 04:59:31;;;;;;;16.00;3.03;;;22.30;75.00;;;;;;5092182;28;20042;-67
2023/08/10 05:02:36;;;;;;;13.35;2.80;;;23.90;69.10;;;;;;5091697;28;20043;-67
2023/08/10 05:05:40;;;;;;;8.15;2.47;;;25.00;66.50;;;;;;5091630;28;20058;-67
2023/08/10 05:08:44;;;;;;;12.38;3.20;;;26.10;64.70;;;;;;5092085;28;20110;-68
2023/08/10 05:11:48;;;;;;;16.63;3.40;;;26.30;64.30;;;;;;5091848;28;20055;-67
2023/08/10 05:14:52;;;;;;;14.35;3.15;;;27.00;63.60;;;;;;5091881;28;20297;-67
2023/08/10 05:17:56;;;;;;;14.43;3.45;;;27.50;62.60;;;;;;5091754;28;20051;-67
2023/08/10 05:21:01;;;;;;;10.50;3.08;;;27.50;63.10;;;;;;5091495;28;20039;-67
2023/08/10 05:24:05;;;;;;;13.10;3.17;;;27.30;63.40;;;;;;5091579;28;20047;-67
2023/08/10 05:27:09;;;;;;;15.57;2.92;;;27.30;63.00;;;;;;5091119;28;20055;-68
2023/08/10 05:30:13;;;;;;;13.02;3.40;;;26.60;65.30;;;;;;5091256;28;20054;-62
2023/08/10 05:33:17;;;;;;;23.73;3.80;;;26.80;66.20;;;;;;5091388;28;20051;-62
2023/08/10 05:36:21;;;;;;;19.55;4.85;;;26.60;67.50;;;;;;5091022;28;20194;-62
2023/08/10 05:39:25;;;;;;;19.98;4.38;;;26.50;68.30;;;;;;5091303;28;20046;-62
2023/08/10 05:42:29;;;;;;;19.95;4.63;;;26.50;69.40;;;;;;5091365;28;20050;-62
2023/08/10 05:45:33;;;;;;;29.52;5.25;;;26.50;70.30;;;;;;5090605;28;20388;-62
2023/08/10 05:48:37;;;;;;;16.67;5.18;;;25.50;72.10;;;;;;5091240;28;20070;-62
2023/08/10 05:51:41;;;;;;;23.08;4.22;;;25.40;72.50;;;;;;5090820;28;20058;-61
2023/08/10 05:54:44;;;;;;;17.08;4.80;;;25.20;73.70;;;;;;5090847;28;20035;-59
2023/08/10 05:57:48;;;;;;;13.90;6.10;;;25.20;74.30;;;;;;5090189;28;20039;-61
2023/08/10 06:00:52;;;;;;;18.85;5.50;;;25.00;74.60;;;;;;5090871;28;20043;-61
2023/08/10 06:03:56;;;;;;;18.30;7.07;;;24.30;74.40;;;;;;5088854;28;20114;-61
2023/08/10 06:07:00;;;;;;;22.38;10.30;;;25.00;75.20;;;;;;5090192;28;20055;-61
2023/08/10 06:10:05;;;;;;;37.22;10.93;;;25.20;75.10;;;;;;5090262;28;20404;-62
2023/08/10 06:13:09;;;;;;;34.25;12.52;;;25.30;75.20;;;;;;5089625;28;20052;-62
2023/08/10 06:16:12;;;;;;;23.15;9.85;;;25.50;74.20;;;;;;5089391;28;20055;-62
2023/08/10 06:19:16;;;;;;;30.40;8.48;;;25.70;73.60;;;;;;5090587;28;20047;-62
2023/08/10 06:22:20;;;;;;;38.72;9.80;;;26.00;73.50;;;;;;5090533;28;20518;-62
2023/08/10 06:25:24;;;;;;;20.40;6.75;;;26.50;71.50;;;;;;5090689;28;20046;-62
2023/08/10 06:28:29;;;;;;;98.65;16.08;;;26.90;70.40;;;;;;5090589;28;20054;-62
2023/08/10 06:31:33;;;;;;;34.22;7.47;;;27.10;69.70;;;;;;5090492;28;20074;-62
2023/08/10 06:34:36;;;;;;;34.05;7.93;;;27.00;68.90;;;;;;5090425;28;20047;-61
2023/08/10 06:37:42;;;;;;;40.80;7.40;;;26.70;70.70;;;;;;5090682;28;20075;-61
2023/08/10 06:40:46;;;;;;;121.45;19.13;;;26.90;71.20;;;;;;5090768;28;20047;-61
2023/08/10 06:43:50;;;;;;;21.45;7.47;;;27.10;71.20;;;;;;5090299;28;20058;-61
2023/08/10 06:46:54;;;;;;;22.65;8.90;;;27.50;69.20;;;;;;5090584;28;20044;-61
2023/08/10 06:49:58;;;;;;;19.42;10.05;;;27.70;69.40;;;;;;5090414;28;20344;-60
2023/08/10 06:53:02;;;;;;;30.08;9.90;;;27.60;69.20;;;;;;5090660;28;20051;-61
2023/08/10 06:56:07;;;;;;;36.10;8.98;;;27.80;69.00;;;;;;5090281;28;20055;-61
2023/08/10 06:59:11;;;;;;;17.48;7.38;;;27.90;68.80;;;;;;5089573;28;20067;-61
2023/08/10 07:02:16;;;;;;;22.95;6.13;;;27.80;69.50;;;;;;5090447;28;20043;-61
2023/08/10 07:05:21;;;;;;;19.98;6.00;;;27.90;70.00;;;;;;5090528;28;20087;-61
2023/08/10 07:08:25;;;;;;;21.27;6.15;;;28.00;72.60;;;;;;5090696;28;20110;-61
2023/08/10 07:11:30;;;;;;;17.50;3.63;;;28.30;73.60;;;;;;5093934;28;20051;-62
2023/08/10 07:14:35;;;;;;;97.25;14.75;;;28.60;78.40;;;;;;5093727;28;20070;-61
2023/08/10 07:17:38;;;;;;;19.40;3.47;;;28.80;80.80;;;;;;5093874;28;20043;-62
2023/08/10 07:20:43;;;;;;;17.17;3.65;;;28.70;79.30;;;;;;5093938;28;20545;-62
2023/08/10 07:23:48;;;;;;;38.70;5.68;;;28.90;79.40;;;;;;5093510;28;20039;-62
2023/08/10 07:26:52;;;;;;;21.63;4.30;;;29.00;79.50;;;;;;5093439;28;20051;-61
2023/08/10 07:29:56;;;;;;;19.90;4.07;;;29.20;79.10;;;;;;5093777;28;20043;-61
2023/08/10 07:33:00;;;;;;;20.30;3.97;;;29.20;78.60;;;;;;5093729;28;20062;-61
2023/08/10 07:36:04;;;;;;;19.23;4.53;;;29.10;79.60;;;;;;5093465;28;20043;-61
2023/08/10 07:39:08;;;;;;;20.40;4.50;;;29.20;78.80;;;;;;5093592;28;20067;-61
2023/08/10 07:42:12;;;;;;;13.75;3.97;;;29.50;78.30;;;;;;5093642;28;20039;-61
2023/08/10 07:45:16;;;;;;;14.82;4.07;;;29.60;76.50;;;;;;5093299;28;20427;-62
2023/08/10 07:48:20;;;;;;;24.60;4.43;;;29.60;76.80;;;;;;5093438;28;20048;-61
2023/08/10 07:51:24;;;;;;;14.32;3.45;;;29.50;77.00;;;;;;5093581;28;20387;-61
2023/08/10 07:54:28;;;;;;;23.45;4.80;;;29.50;75.90;;;;;;5092979;28;20043;-62
2023/08/10 07:57:32;;;;;;;17.58;4.80;;;29.60;75.10;;;;;;5093203;28;20051;-61
2023/08/10 08:00:38;;;;;;;13.20;3.97;;;29.70;74.00;;;;;;5092891;28;20051;-62
2023/08/10 08:03:42;;;;;;;15.63;4.50;;;29.70;72.50;;;;;;5092068;28;20146;-62
2023/08/10 08:06:46;;;;;;;13.10;3.90;;;29.50;73.10;;;;;;5093017;28;20530;-61
2023/08/10 08:09:50;;;;;;;11.27;3.97;;;29.50;74.30;;;;;;5092889;28;20063;-61
2023/08/10 08:12:54;;;;;;;12.23;4.25;;;29.50;73.10;;;;;;5092047;28;20047;-62
2023/08/10 08:15:58;;;;;;;11.77;4.05;;;29.70;71.20;;;;;;5092585;28;20395;-65
2023/08/10 08:19:02;;;;;;;9.80;4.28;;;29.80;70.20;;;;;;5092900;28;20051;-62
2023/08/10 08:22:05;;;;;;;6.65;3.20;;;29.60;69.40;;;;;;5092013;28;20047;-61
2023/08/10 08:25:09;;;;;;;10.88;4.10;;;29.60;70.00;;;;;;5092537;28;20051;-61
2023/08/10 08:28:13;;;;;;;9.35;3.95;;;29.40;68.80;;;;;;5092222;28;20043;-60
2023/08/10 08:31:17;;;;;;;12.95;3.80;;;29.30;69.80;;;;;;5091727;28;20051;-61
2023/08/10 08:34:21;;;;;;;19.80;5.05;;;29.10;71.00;;;;;;5092375;28;20410;-62
2023/08/10 08:37:25;;;;;;;29.38;4.78;;;29.00;71.70;;;;;;5092510;28;20154;-60
2023/08/10 08:40:29;;;;;;;8.60;3.88;;;29.20;71.70;;;;;;5092567;28;20047;-61
2023/08/10 08:43:34;;;;;;;12.43;3.78;;;29.30;72.00;;;;;;5092268;28;20503;-61
2023/08/10 08:46:40;;;;;;;10.38;3.58;;;29.50;70.90;;;;;;5091329;28;20043;-61
2023/08/10 08:49:44;;;;;;;14.32;4.15;;;29.60;70.10;;;;;;5092368;28;20035;-61
2023/08/10 08:52:50;;;;;;;9.40;3.90;;;29.60;68.20;;;;;;5092088;28;20074;-61
2023/08/10 08:55:54;;;;;;;7.00;3.38;;;29.40;68.50;;;;;;5091955;28;20042;-60
2023/08/10 08:58:57;;;;;;;18.80;4.65;;;29.50;69.30;;;;;;5091921;28;20047;-60
2023/08/10 09:02:01;;;;;;;12.13;3.92;;;29.60;69.70;;;;;;5091904;28;20063;-60
2023/08/10 09:05:07;;;;;;;11.52;3.67;;;29.60;69.20;;;;;;5091954;28;20054;-61
2023/08/10 09:08:14;;;;;;;17.50;3.97;;;29.60;69.70;;;;;;5091429;28;20047;-61
2023/08/10 09:11:18;;;;;;;11.93;4.20;;;29.70;69.00;;;;;;5091713;28;20055;-61
2023/08/10 09:14:22;;;;;;;13.90;3.90;;;29.70;69.00;;;;;;5091821;28;20059;-63
2023/08/10 09:17:26;;;;;;;20.55;4.43;;;29.70;68.50;;;;;;5091591;28;20055;-61
2023/08/10 09:20:30;;;;;;;9.10;3.90;;;29.70;68.50;;;;;;5091755;28;20038;-62
2023/08/10 09:23:35;;;;;;;10.20;3.92;;;29.80;68.40;;;;;;5091660;28;20051;-63
2023/08/10 09:26:40;;;;;;;12.65;3.90;;;29.90;65.20;;;;;;5091098;28;20063;-62
2023/08/10 09:29:45;;;;;;;5.78;3.45;;;29.90;66.40;;;;;;5091543;28;20413;-62
2023/08/10 09:32:49;;;;;;;11.15;4.13;;;29.90;67.00;;;;;;5091343;28;20510;-62
2023/08/10 09:35:58;;;;;;;14.23;4.43;;;30.00;65.70;;;;;;5090536;28;20051;-61
2023/08/10 09:39:03;;;;;;;10.32;3.95;;;30.00;66.20;;;;;;5091792;28;20051;-61
2023/08/10 09:42:07;;;;;;;8.77;4.25;;;30.00;67.60;;;;;;5091433;28;20388;-61
2023/08/10 09:45:13;;;;;;;13.57;4.30;;;30.00;68.10;;;;;;5091164;28;20118;-62
2023/08/10 09:48:16;;;;;;;11.10;4.40;;;30.00;68.70;;;;;;5091467;28;20047;-61
2023/08/10 09:51:20;;;;;;;12.43;4.10;;;29.90;68.00;;;;;;5091066;28;20059;-62
2023/08/10 09:54:25;;;;;;;23.13;5.82;;;30.00;68.20;;;;;;5091128;28;20046;-61
2023/08/10 09:57:30;;;;;;;30.55;5.25;;;30.10;68.00;;;;;;5091074;28;20050;-59
2023/08/10 10:00:38;;;;;;;13.77;4.63;;;30.20;67.60;;;;;;5090988;28;20043;-62
2023/08/10 10:03:43;;;;;;;7.30;3.70;;;30.30;67.50;;;;;;5091284;28;20050;-62
2023/08/10 10:06:48;;;;;;;9.15;4.10;;;30.40;67.70;;;;;;5090901;28;20086;-61
2023/08/10 10:09:58;;;;;;;12.70;4.28;;;30.50;67.20;;;;;;5090852;28;20420;-60
2023/08/10 10:13:07;;;;;;;11.25;4.00;;;30.50;67.50;;;;;;5092090;28;20055;-61
2023/08/10 10:16:12;;;;;;;10.52;4.60;;;30.50;68.50;;;;;;5090801;28;20067;-61
2023/08/10 10:19:16;;;;;;;16.75;4.85;;;30.60;69.50;;;;;;5090808;28;20047;-60
2023/08/10 10:22:20;;;;;;;17.48;4.53;;;30.70;70.50;;;;;;5090874;28;20412;-61
2023/08/10 10:25:24;;;;;;;13.45;3.90;;;30.80;70.30;;;;;;5090798;28;20043;-61
2023/08/10 10:28:30;;;;;;;9.70;3.90;;;30.90;70.60;;;;;;5091029;28;20055;-60
2023/08/10 10:31:34;;;;;;;8.52;3.60;;;31.00;70.40;;;;;;5090525;28;20051;-60
2023/08/10 10:34:40;;;;;;;10.05;4.25;;;31.00;70.50;;;;;;5090792;28;20047;-60
2023/08/10 10:37:57;;;;;;;10.93;3.70;;;31.00;69.50;;;;;;5090311;28;20059;-60
2023/08/10 10:41:27;;;;;;;71.88;6.85;;;31.00;70.20;;;;;;5090683;28;20047;-60
2023/08/10 10:44:58;;;;;;;22.98;4.38;;;31.10;71.20;;;;;;5092731;28;20119;-61
2023/08/10 10:48:04;;;;;;;8.65;3.42;;;31.10;71.10;;;;;;5094316;28;20043;-61
2023/08/10 10:51:08;;;;;;;13.00;4.13;;;31.00;70.20;;;;;;5094184;28;20059;-61
2023/08/10 10:54:12;;;;;;;29.35;5.90;;;31.00;70.50;;;;;;5094253;28;20503;-61
2023/08/10 10:57:17;;;;;;;7.60;3.90;;;31.00;71.50;;;;;;5094054;28;20047;-61
2023/08/10 11:00:23;;;;;;;9.80;3.97;;;30.90;71.80;;;;;;5094591;28;20165;-61
2023/08/10 11:03:29;;;;;;;9.07;4.20;;;30.90;72.00;;;;;;5094158;28;20047;-61
2023/08/10 11:06:36;;;;;;;13.13;4.28;;;30.80;72.80;;;;;;5094308;28;20051;-61
2023/08/10 11:09:40;;;;;;;10.02;4.50;;;30.80;72.40;;;;;;5094282;28;20051;-61
2023/08/10 11:12:48;;;;;;;9.15;3.70;;;30.80;72.70;;;;;;5093804;28;20059;-61
2023/08/10 11:15:52;;;;;;;9.68;4.40;;;30.80;71.70;;;;;;5093782;28;20407;-61
2023/08/10 11:18:58;;;;;;;6.72;3.50;;;30.70;70.80;;;;;;5093805;28;20046;-61
2023/08/10 11:22:02;;;;;;;6.80;3.75;;;30.50;71.30;;;;;;5093654;28;20070;-61
2023/08/10 11:25:14;;;;;;;8.93;3.95;;;30.50;71.90;;;;;;5093929;28;20412;-61
2023/08/10 11:28:21;;;;;;;16.15;4.53;;;30.60;71.30;;;;;;5093715;28;20047;-61
2023/08/10 11:31:25;;;;;;;10.25;4.07;;;30.50;70.80;;;;;;5093379;28;20051;-61
2023/08/10 11:34:29;;;;;;;6.20;3.22;;;30.50;71.10;;;;;;5093388;28;20043;-61
2023/08/10 11:37:34;;;;;;;11.82;3.95;;;30.50;71.20;;;;;;5092418;28;20051;-61
2023/08/10 11:40:39;;;;;;;25.35;5.40;;;30.50;70.90;;;;;;5093434;28;20046;-60
2023/08/10 11:43:46;;;;;;;13.18;3.80;;;30.50;70.90;;;;;;5093390;28;20043;-60
2023/08/10 11:46:49;;;;;;;11.00;4.00;;;30.50;71.00;;;;;;5093341;28;20043;-60
2023/08/10 11:49:53;;;;;;;6.82;3.08;;;30.50;71.30;;;;;;5092764;28;20059;-60
2023/08/10 11:53:11;;;;;;;7.75;3.35;;;30.50;71.30;;;;;;5092770;28;20054;-61
2023/08/10 11:56:15;;;;;;;10.82;4.13;;;30.50;71.40;;;;;;5091269;28;20407;-60
2023/08/10 11:59:19;;;;;;;18.08;4.72;;;30.60;72.00;;;;;;5093420;28;20051;-62
2023/08/10 12:02:23;;;;;;;7.00;3.53;;;30.60;72.50;;;;;;5091866;28;20055;-61
2023/08/10 12:05:47;;;;;;;13.50;4.30;;;30.60;72.50;;;;;;5091270;28;20502;-61
2023/08/10 12:08:52;;;;;;;11.13;3.97;;;30.60;73.20;;;;;;5091981;28;20043;-61
2023/08/10 12:11:57;;;;;;;11.23;4.10;;;30.60;73.80;;;;;;5092065;28;20047;-61
2023/08/10 12:15:11;;;;;;;10.15;3.67;;;30.60;73.90;;;;;;5092060;28;20244;-61
2023/08/10 12:18:17;;;;;;;13.90;4.18;;;30.60;74.10;;;;;;5092858;28;20046;-61
2023/08/10 12:21:21;;;;;;;14.77;4.30;;;30.60;74.20;;;;;;5092794;28;20055;-61
2023/08/10 12:24:25;;;;;;;18.30;3.40;;;30.60;74.90;;;;;;5092664;28;20051;-61
2023/08/10 12:27:29;;;;;;;19.00;4.97;;;30.50;74.50;;;;;;5091873;28;20055;-61
2023/08/10 12:30:34;;;;;;;13.77;4.20;;;30.50;74.70;;;;;;5092282;28;20051;-60
2023/08/10 12:33:40;;;;;;;15.32;4.68;;;30.40;74.60;;;;;;5092601;28;20079;-60
2023/08/10 12:36:45;;;;;;;14.70;3.85;;;30.40;74.60;;;;;;5092304;28;20054;-61
2023/08/10 12:39:49;;;;;;;15.40;3.70;;;30.70;73.60;;;;;;5092373;28;20063;-61
2023/08/10 12:42:54;;;;;;;16.08;3.88;;;32.30;71.20;;;;;;5092445;28;20039;-60
2023/08/10 12:45:58;;;;;;;10.85;3.85;;;33.70;68.10;;;;;;5092327;28;20074;-60
2023/08/10 12:49:01;;;;;;;12.85;3.50;;;34.30;66.90;;;;;;5092111;28;20055;-61
2023/08/10 12:52:06;;;;;;;20.40;4.32;;;34.60;66.50;;;;;;5091175;28;20054;-61
2023/08/10 12:55:10;;;;;;;19.10;4.25;;;34.20;66.70;;;;;;5092299;28;20502;-61
2023/08/10 12:58:15;;;;;;;14.73;3.95;;;33.80;67.10;;;;;;5092195;28;20054;-61
2023/08/10 13:01:19;;;;;;;5.82;2.83;;;33.80;67.20;;;;;;5090284;28;20047;-61
2023/08/10 13:04:22;;;;;;;8.27;3.20;;;34.20;65.70;;;;;;5091598;28;20066;-62
2023/08/10 13:07:27;;;;;;;16.05;3.10;;;34.40;65.70;;;;;;5091505;28;20062;-62
2023/08/10 13:10:33;;;;;;;28.67;3.90;;;34.20;66.20;;;;;;5090820;28;20043;-61
2023/08/10 13:13:37;;;;;;;23.17;4.03;;;34.00;66.00;;;;;;5091619;28;20051;-61
2023/08/10 13:16:41;;;;;;;8.93;3.45;;;33.70;65.10;;;;;;5091539;28;20051;-61
2023/08/10 13:19:45;;;;;;;12.27;2.85;;;33.50;64.90;;;;;;5091762;28;20051;-61
2023/08/10 13:22:49;;;;;;;9.23;3.00;;;33.30;65.50;;;;;;5091647;28;20063;-61
2023/08/10 13:25:53;;;;;;;13.75;2.80;;;33.20;64.60;;;;;;5091331;28;20043;-61
2023/08/10 13:28:57;;;;;;;13.15;3.13;;;33.00;64.90;;;;;;5091423;28;20047;-61
2023/08/10 13:32:01;;;;;;;25.10;4.22;;;33.30;63.60;;;;;;5091065;28;20063;-62
2023/08/10 13:35:06;;;;;;;17.38;3.00;;;33.40;62.80;;;;;;5091174;28;20105;-61
2023/08/10 13:38:11;;;;;;;8.30;3.05;;;33.60;62.30;;;;;;5091491;28;20043;-63
2023/08/10 13:41:14;;;;;;;8.60;2.78;;;33.40;60.80;;;;;;5091510;28;20047;-62
2023/08/10 13:44:18;;;;;;;29.13;4.22;;;33.30;61.70;;;;;;5091443;28;20040;-61
2023/08/10 13:47:22;;;;;;;29.42;3.75;;;33.20;63.80;;;;;;5091197;28;20035;-63
2023/08/10 13:50:26;;;;;;;17.50;3.70;;;32.80;65.00;;;;;;5091099;28;20043;-59
2023/08/10 13:53:31;;;;;;;19.85;2.90;;;32.60;62.60;;;;;;5091293;28;20499;-62
2023/08/10 13:57:00;;;;;;;8.68;2.67;;;32.60;64.90;;;;;;5090770;28;20404;-62
2023/08/10 14:00:05;;;;;;;9.80;3.10;;;32.70;65.10;;;;;;5091006;28;20051;-60
2023/08/10 14:03:09;;;;;;;10.80;3.10;;;32.80;64.00;;;;;;5090979;28;20384;-60
2023/08/10 14:06:13;;;;;;;17.08;3.15;;;32.70;64.30;;;;;;5090714;28;20043;-61
2023/08/10 14:09:18;;;;;;;12.10;2.83;;;32.30;65.50;;;;;;5091006;28;20051;-61
2023/08/10 14:12:22;;;;;;;22.63;3.30;;;31.80;65.50;;;;;;5090639;28;20118;-63
2023/08/10 14:15:27;;;;;;;8.77;3.72;;;31.50;66.50;;;;;;5090899;28;20047;-63
2023/08/10 14:18:31;;;;;;;11.85;4.18;;;31.30;66.80;;;;;;5091169;28;20047;-59
2023/08/10 14:21:35;;;;;;;6.68;3.05;;;31.10;68.50;;;;;;5095011;28;20431;-60
2023/08/10 14:24:38;;;;;;;9.27;2.72;;;31.00;69.20;;;;;;5094700;28;20043;-60
2023/08/10 14:27:42;;;;;;;6.53;2.88;;;30.80;68.80;;;;;;5094826;28;20055;-60
2023/08/10 14:30:47;;;;;;;8.80;3.05;;;30.70;67.60;;;;;;5094728;28;20035;-61
2023/08/10 14:33:51;;;;;;;24.38;3.92;;;30.60;69.10;;;;;;5094714;28;20058;-60
2023/08/10 14:36:55;;;;;;;10.55;2.63;;;30.50;68.90;;;;;;5094586;28;20055;-60
2023/08/10 14:39:59;;;;;;;15.63;3.30;;;30.50;70.00;;;;;;5094406;28;20043;-60
2023/08/10 14:43:03;;;;;;;16.33;3.50;;;30.40;67.90;;;;;;5094580;28;20395;-61
2023/08/10 14:46:07;;;;;;;7.25;3.10;;;30.20;67.70;;;;;;5094533;28;20047;-61
2023/08/10 14:49:12;;;;;;;12.18;2.70;;;30.20;68.20;;;;;;5094274;28;20047;-61
2023/08/10 14:52:16;;;;;;;7.18;2.85;;;30.20;69.10;;;;;;5094182;28;20051;-61
2023/08/10 14:55:21;;;;;;;14.65;5.30;;;30.10;67.60;;;;;;5094142;28;20419;-62
2023/08/10 14:58:25;;;;;;;12.05;3.47;;;30.10;67.50;;;;;;5094174;28;20047;-61
2023/08/10 15:01:29;;;;;;;23.75;3.83;;;30.00;67.90;;;;;;5093968;28;20254;-60
2023/08/10 15:04:33;;;;;;;27.23;4.30;;;30.00;69.20;;;;;;5093178;28;20031;-61
2023/08/10 15:07:37;;;;;;;31.67;4.53;;;30.00;69.50;;;;;;5093942;28;20043;-61
2023/08/10 15:10:42;;;;;;;14.48;2.85;;;30.10;69.10;;;;;;5093054;28;20043;-61
2023/08/10 15:13:47;;;;;;;33.80;5.55;;;31.10;66.30;;;;;;5093574;28;20059;-60
2023/08/10 15:16:52;;;;;;;13.43;3.30;;;31.80;65.50;;;;;;5093828;28;20047;-60
2023/08/10 15:19:56;;;;;;;23.50;3.50;;;32.60;64.80;;;;;;5093788;28;20044;-62
2023/08/10 15:22:59;;;;;;;132.75;9.18;;;32.70;64.90;;;;;;5093669;28;20059;-61
2023/08/10 15:26:03;;;;;;;16.25;3.20;;;33.30;64.70;;;;;;5093360;28;20059;-61
2023/08/10 15:29:09;;;;;;;12.32;2.90;;;33.60;63.90;;;;;;5093469;28;20084;-61
2023/08/10 15:32:13;;;;;;;9.00;2.78;;;33.50;62.60;;;;;;5093991;28;20490;-61
2023/08/10 15:35:17;;;;;;;12.40;3.22;;;33.50;61.90;;;;;;5093494;28;20341;-61
2023/08/10 15:38:21;;;;;;;19.77;2.97;;;33.10;61.70;;;;;;5093323;28;20047;-61
2023/08/10 15:41:25;;;;;;;20.17;3.13;;;32.30;62.90;;;;;;5092010;28;20058;-60
2023/08/10 15:44:29;;;;;;;29.35;4.78;;;31.60;63.90;;;;;;5091600;28;20051;-61
2023/08/10 15:47:34;;;;;;;15.45;3.50;;;31.10;64.90;;;;;;5091109;28;20051;-60
2023/08/10 15:50:37;;;;;;;16.00;3.67;;;30.90;66.40;;;;;;5090907;28;20293;-60
2023/08/10 15:53:41;;;;;;;18.35;3.95;;;30.50;66.90;;;;;;5091983;28;20051;-60
2023/08/10 15:56:45;;;;;;;21.73;3.25;;;30.30;67.40;;;;;;5092503;28;20051;-60